Time;durP1;ratioP1;P1;durP2;ratioP2;P2;SDS_P1;SDS_P2;PMS_P1;PMS_P2;Temp;Humidity;BMP_temperature;BMP_pressure;BME280_temperature;BME280_humidity;BME280_pressure;Samples;Min_cycle;Max_cycle;Signal;HPM_P1;HPM_P2
2021/10/11 00:01:25;;;;;;;17.47;4.27;;;;;;;14.24;100.00;102555.75;5093254;28;20374;-62
2021/10/11 00:03:51;;;;;;;14.75;4.18;;;;;;;14.26;100.00;102561.81;5099701;28;20036;-62
2021/10/11 00:06:16;;;;;;;12.37;4.57;;;;;;;14.22;100.00;102562.31;5096089;28;20495;-60
2021/10/11 00:08:42;;;;;;;11.53;3.40;;;;;;;14.18;100.00;102557.31;5096810;28;20299;-59
2021/10/11 00:11:07;;;;;;;16.17;4.28;;;;;;;14.21;100.00;102561.50;5094253;28;20031;-60
2021/10/11 00:13:33;;;;;;;29.80;5.30;;;;;;;14.19;100.00;102561.66;5093800;28;20089;-60
2021/10/11 00:15:59;;;;;;;14.13;4.10;;;;;;;14.17;100.00;102562.84;5095202;28;20070;-60
2021/10/11 00:18:24;;;;;;;17.70;3.90;;;;;;;14.16;100.00;102572.78;5095120;28;20032;-60
2021/10/11 00:20:50;;;;;;;15.43;4.78;;;;;;;14.17;100.00;102568.22;5060187;28;20047;-60
2021/10/11 00:23:15;;;;;;;12.48;4.10;;;;;;;14.16;100.00;102562.03;5093437;28;20074;-61
2021/10/11 00:25:41;;;;;;;12.25;4.40;;;;;;;14.12;100.00;102555.31;5093261;28;20031;-60
2021/10/11 00:28:07;;;;;;;14.95;3.90;;;;;;;14.10;100.00;102565.44;5091864;28;20043;-60
2021/10/11 00:30:34;;;;;;;9.32;3.60;;;;;;;13.98;100.00;102559.59;5093569;28;20032;-60
2021/10/11 00:33:00;;;;;;;15.37;4.10;;;;;;;13.88;100.00;102559.81;5093253;28;20032;-60
2021/10/11 00:35:26;;;;;;;17.80;4.22;;;;;;;13.79;100.00;102560.03;5093209;28;20387;-61
2021/10/11 00:37:51;;;;;;;13.25;3.95;;;;;;;13.65;100.00;102562.44;5093209;28;20123;-60
2021/10/11 00:40:17;;;;;;;14.55;4.68;;;;;;;13.53;100.00;102564.66;5093247;28;20040;-61
2021/10/11 00:42:42;;;;;;;15.35;4.43;;;;;;;13.46;100.00;102560.97;5092904;28;20503;-61
2021/10/11 00:45:08;;;;;;;20.15;4.60;;;;;;;13.39;100.00;102568.03;5093499;28;20075;-61
2021/10/11 00:47:33;;;;;;;12.55;4.13;;;;;;;13.31;100.00;102563.50;5093104;28;20024;-60
2021/10/11 00:49:59;;;;;;;21.43;4.90;;;;;;;13.23;100.00;102561.69;5093137;28;20035;-61
2021/10/11 00:52:25;;;;;;;15.80;5.33;;;;;;;13.16;100.00;102558.84;5093219;28;20453;-61
2021/10/11 00:54:50;;;;;;;18.20;4.75;;;;;;;13.14;100.00;102562.69;5091275;28;20063;-61
2021/10/11 00:57:16;;;;;;;21.77;5.18;;;;;;;13.13;100.00;102556.50;5091714;28;20457;-60
2021/10/11 00:59:43;;;;;;;24.90;5.78;;;;;;;13.13;100.00;102561.00;5092798;28;20078;-60
2021/10/11 01:02:08;;;;;;;;;;;;;;;13.18;100.00;102564.03;5093463;28;20032;-61
2021/10/11 01:04:34;;;;;;;27.57;5.43;;;;;;;13.19;100.00;102563.03;5093993;28;19912;-59
2021/10/11 01:07:00;;;;;;;22.13;5.57;;;;;;;13.22;100.00;102559.16;5098060;28;20506;-61
2021/10/11 01:09:25;;;;;;;14.00;5.23;;;;;;;13.26;100.00;102555.97;5102138;28;20066;-60
2021/10/11 01:11:51;;;;;;;19.33;4.83;;;;;;;13.27;100.00;102559.50;5094766;28;20377;-61
2021/10/11 01:14:17;;;;;;;19.63;5.10;;;;;;;13.25;100.00;102556.97;5092990;28;20040;-60
2021/10/11 01:16:43;;;;;;;13.57;4.97;;;;;;;13.20;100.00;102553.97;5095569;28;20039;-61
2021/10/11 01:19:09;;;;;;;21.13;5.28;;;;;;;13.16;100.00;102555.31;5096977;28;20272;-60
2021/10/11 01:21:35;;;;;;;22.30;6.07;;;;;;;13.17;100.00;102559.69;5094537;28;20343;-61
2021/10/11 01:24:00;;;;;;;15.82;5.15;;;;;;;13.09;100.00;102548.94;5092874;28;20036;-61
2021/10/11 01:26:40;;;;;;;17.07;4.97;;;;;;;12.98;100.00;102548.28;5093333;28;20055;-61
2021/10/11 01:29:07;;;;;;;20.40;5.70;;;;;;;13.02;100.00;102544.25;5092706;28;20035;-61
2021/10/11 01:31:33;;;;;;;31.33;5.90;;;;;;;13.01;100.00;102550.63;5096808;28;20269;-62
2021/10/11 01:33:59;;;;;;;20.73;5.65;;;;;;;13.05;100.00;102548.47;5096586;28;20356;-60
2021/10/11 01:36:25;;;;;;;17.25;5.43;;;;;;;13.09;100.00;102549.78;5095305;28;20115;-61
2021/10/11 01:38:59;;;;;;;24.58;5.65;;;;;;;13.14;100.00;102549.25;5096195;28;20119;-59
2021/10/11 01:41:25;;;;;;;15.57;4.67;;;;;;;13.19;100.00;102554.97;5096578;28;20423;-61
2021/10/11 01:43:51;;;;;;;19.63;5.07;;;;;;;13.19;100.00;102554.97;5078267;28;20318;-61
2021/10/11 01:46:17;;;;;;;17.08;5.18;;;;;;;13.14;100.00;102549.25;5096315;28;20032;-59
2021/10/11 01:48:45;;;;;;;13.20;4.65;;;;;;;13.22;100.00;102557.31;5096151;28;20040;-61
2021/10/11 01:51:11;;;;;;;25.00;5.67;;;;;;;13.19;100.00;102554.97;5095207;28;20043;-60
2021/10/11 01:53:37;;;;;;;15.10;4.68;;;;;;;13.20;100.00;102548.59;5096228;28;20298;-60
2021/10/11 01:56:03;;;;;;;22.08;5.40;;;;;;;13.23;100.00;102550.94;5095975;28;20532;-60
2021/10/11 01:58:28;;;;;;;16.20;5.13;;;;;;;13.20;100.00;102551.28;5096082;28;20028;-60
2021/10/11 02:00:54;;;;;;;15.52;5.50;;;;;;;13.15;100.00;102549.09;5096325;28;20036;-61
2021/10/11 02:03:19;;;;;;;19.13;5.32;;;;;;;13.04;100.00;102546.78;5096138;28;20032;-60
2021/10/11 02:05:45;;;;;;;14.60;4.97;;;;;;;12.94;100.00;102552.31;5094722;28;20075;-61
2021/10/11 02:08:10;;;;;;;12.50;4.43;;;;;;;12.85;100.00;102545.25;5096010;28;20606;-61
2021/10/11 02:10:36;;;;;;;22.57;4.17;;;;;;;12.79;100.00;102544.09;5094920;28;20028;-60
2021/10/11 02:13:02;;;;;;;9.57;3.80;;;;;;;12.73;100.00;102548.31;5095723;28;20032;-60
2021/10/11 02:15:27;;;;;;;17.67;4.82;;;;;;;12.63;100.00;102544.94;5096256;28;20093;-61
2021/10/11 02:17:53;;;;;;;15.90;5.00;;;;;;;12.54;100.00;102546.75;5094522;28;20028;-61
2021/10/11 02:20:19;;;;;;;20.02;4.10;;;;;;;12.47;100.00;102551.97;5095847;28;20027;-60
2021/10/11 02:22:45;;;;;;;18.55;4.82;;;;;;;12.74;100.00;102549.97;5094750;28;20040;-61
2021/10/11 02:25:10;;;;;;;19.67;4.90;;;;;;;12.88;100.00;102545.78;5094400;28;20119;-59
2021/10/11 02:27:37;;;;;;;17.85;3.90;;;;;;;12.93;100.00;102539.06;5095667;28;20036;-59
2021/10/11 02:30:06;;;;;;;;;;;;;;;12.85;100.00;102547.94;5096287;28;20264;-60
2021/10/11 02:32:31;;;;;;;17.03;4.03;;;;;;;12.58;100.00;102553.50;5095679;28;19904;-60
2021/10/11 02:34:56;;;;;;;19.67;4.97;;;;;;;12.29;100.00;102559.31;5095429;28;20283;-60
2021/10/11 02:37:22;;;;;;;22.97;4.50;;;;;;;12.19;100.00;102551.41;5095708;28;20086;-60
2021/10/11 02:39:49;;;;;;;15.87;4.20;;;;;;;12.20;100.00;102563.84;5095022;28;20028;-60
2021/10/11 02:42:15;;;;;;;22.33;3.83;;;;;;;12.25;100.00;102566.03;5094514;28;20272;-61
2021/10/11 02:44:41;;;;;;;22.30;5.07;;;;;;;12.31;100.00;102568.03;5093892;28;20330;-61
2021/10/11 02:47:07;;;;;;;18.13;4.60;;;;;;;12.30;100.00;102561.00;5095060;28;20032;-60
2021/10/11 02:49:32;;;;;;;21.25;4.57;;;;;;;12.36;100.00;102571.06;5094139;28;20473;-59
2021/10/11 02:51:57;;;;;;;23.97;3.47;;;;;;;12.37;100.00;102550.47;5076872;28;20452;-61
2021/10/11 02:54:23;;;;;;;18.90;3.50;;;;;;;12.36;100.00;102557.66;5095664;28;20362;-61
2021/10/11 02:56:48;;;;;;;13.17;3.50;;;;;;;12.38;100.00;102557.50;5095069;28;20016;-59
2021/10/11 02:59:14;;;;;;;13.83;3.50;;;;;;;12.45;100.00;102555.81;5094113;28;20075;-61
2021/10/11 03:01:39;;;;;;;14.03;4.30;;;;;;;12.43;100.00;102553.28;5093973;28;20028;-61
2021/10/11 03:04:05;;;;;;;12.33;3.53;;;;;;;12.38;100.00;102552.97;5094537;28;20032;-60
2021/10/11 03:06:30;;;;;;;11.47;3.20;;;;;;;12.35;100.00;102545.25;5093608;28;20257;-60
2021/10/11 03:08:56;;;;;;;13.23;4.03;;;;;;;12.27;100.00;102539.88;5093294;28;20102;-61
2021/10/11 03:11:21;;;;;;;13.00;4.00;;;;;;;12.29;100.00;102549.41;5094795;28;20060;-61
2021/10/11 03:13:47;;;;;;;15.85;4.00;;;;;;;12.21;100.00;102532.47;5094904;28;20127;-61
2021/10/11 03:16:12;;;;;;;23.63;5.32;;;;;;;12.18;100.00;102545.22;5094710;28;20039;-61
2021/10/11 03:18:38;;;;;;;11.73;4.10;;;;;;;12.14;100.00;102525.09;5094682;28;20055;-61
2021/10/11 03:21:04;;;;;;;20.75;4.03;;;;;;;12.09;100.00;102523.88;5111456;28;20283;-61
2021/10/11 03:23:30;;;;;;;17.02;4.40;;;;;;;12.07;100.00;102525.91;5109059;28;20101;-62
2021/10/11 03:25:55;;;;;;;14.13;4.57;;;;;;;11.99;100.00;102526.69;5094500;28;20032;-61
2021/10/11 03:28:21;;;;;;;12.50;4.23;;;;;;;11.95;100.00;102534.22;5094582;28;20757;-59
2021/10/11 03:30:47;;;;;;;18.53;4.47;;;;;;;11.90;100.00;102529.34;5093405;28;20276;-60
2021/10/11 03:33:12;;;;;;;20.58;5.40;;;;;;;11.84;100.00;102530.00;5112968;28;20036;-60
2021/10/11 03:35:38;;;;;;;21.05;4.78;;;;;;;11.72;100.00;102529.47;5113554;28;20039;-59
2021/10/11 03:38:04;;;;;;;13.17;4.33;;;;;;;11.67;100.00;102533.63;5114621;28;20466;-60
2021/10/11 03:40:29;;;;;;;12.98;4.30;;;;;;;11.58;100.00;102525.56;5114545;27;20049;-61
2021/10/11 03:42:55;;;;;;;17.55;4.40;;;;;;;11.52;100.00;102531.53;5114507;28;20050;-60
2021/10/11 03:45:20;;;;;;;15.32;4.13;;;;;;;11.48;100.00;102536.41;5114355;28;20361;-60
2021/10/11 03:47:46;;;;;;;15.20;4.60;;;;;;;11.43;100.00;102532.50;5106955;28;20054;-59
2021/10/11 03:50:11;;;;;;;13.83;4.07;;;;;;;11.38;100.00;102535.66;5097343;28;20023;-61
2021/10/11 03:52:37;;;;;;;15.57;3.77;;;;;;;11.31;100.00;102531.94;5104320;28;20268;-59
2021/10/11 03:55:03;;;;;;;10.63;3.90;;;;;;;11.25;100.00;102528.03;5103398;28;20276;-61
2021/10/11 03:57:29;;;;;;;13.73;5.00;;;;;;;11.20;100.00;102533.03;5111066;28;20300;-60
2021/10/11 03:59:54;;;;;;;20.67;4.53;;;;;;;11.17;100.00;102538.72;5092462;28;20050;-61
2021/10/11 04:02:20;;;;;;;19.15;4.47;;;;;;;11.12;100.00;102519.63;5102362;28;20039;-60
2021/10/11 04:04:45;;;;;;;13.37;5.70;;;;;;;11.06;100.00;102515.72;5112393;28;20449;-60
2021/10/11 04:07:13;;;;;;;20.17;4.82;;;;;;;11.10;100.00;102522.44;5093580;28;20044;-61
2021/10/11 04:09:41;;;;;;;12.90;5.00;;;;;;;11.05;100.00;102522.06;5092612;28;20042;-61
2021/10/11 04:12:10;;;;;;;20.98;5.63;;;;;;;11.00;100.00;102521.72;5093441;28;20067;-61
2021/10/11 04:14:35;;;;;;;20.17;4.50;;;;;;;10.96;100.00;102534.56;5099478;27;20068;-61
2021/10/11 04:17:01;;;;;;;16.92;4.93;;;;;;;10.92;100.00;102535.03;5112298;28;20477;-61
2021/10/11 04:19:27;;;;;;;19.27;5.40;;;;;;;10.88;100.00;102535.34;5099858;28;20079;-59
2021/10/11 04:21:52;;;;;;;24.70;5.32;;;;;;;10.86;100.00;102526.63;5093864;28;20067;-60
2021/10/11 04:24:18;;;;;;;17.87;5.23;;;;;;;10.86;100.00;102531.97;5093249;28;20127;-61
2021/10/11 04:26:44;;;;;;;16.93;5.13;;;;;;;10.86;100.00;102536.50;5093490;28;20085;-61
2021/10/11 04:29:09;;;;;;;17.88;5.97;;;;;;;10.81;100.00;102533.44;5093277;28;20248;-60
2021/10/11 04:31:35;;;;;;;20.77;6.07;;;;;;;10.75;100.00;102534.91;5093534;28;20114;-60
2021/10/11 04:34:00;;;;;;;24.38;6.25;;;;;;;10.76;100.00;102541.94;5092895;28;20283;-60
2021/10/11 04:36:26;;;;;;;16.27;5.20;;;;;;;10.70;100.00;102532.69;5092215;28;20036;-60
2021/10/11 04:38:52;;;;;;;28.20;6.70;;;;;;;10.73;100.00;102532.38;5091890;28;20032;-61
2021/10/11 04:41:18;;;;;;;29.75;5.20;;;;;;;10.70;100.00;102535.38;5093369;28;20040;-60
2021/10/11 04:43:44;;;;;;;14.82;4.50;;;;;;;10.69;100.00;102539.03;5093183;28;20407;-60
2021/10/11 04:46:09;;;;;;;17.67;5.00;;;;;;;10.63;100.00;102534.31;5092712;28;20127;-60
2021/10/11 04:48:35;;;;;;;24.07;5.50;;;;;;;10.62;100.00;102532.63;5091863;28;20031;-60
2021/10/11 04:51:00;;;;;;;22.90;5.72;;;;;;;10.60;100.00;102535.44;5092941;28;20065;-61
2021/10/11 04:53:26;;;;;;;28.30;6.50;;;;;;;10.50;100.00;102533.84;5075183;28;20032;-61
2021/10/11 04:55:51;;;;;;;26.52;5.80;;;;;;;10.50;100.00;102533.84;5092736;28;20500;-61
2021/10/11 04:58:17;;;;;;;22.17;6.00;;;;;;;10.46;100.00;102536.84;5091593;28;20032;-62
2021/10/11 05:00:42;;;;;;;23.57;6.20;;;;;;;10.47;100.00;102532.31;5091856;28;20077;-61
2021/10/11 05:03:08;;;;;;;26.17;5.87;;;;;;;10.44;100.00;102522.78;5091535;28;20027;-61
2021/10/11 05:05:34;;;;;;;27.27;5.60;;;;;;;10.41;100.00;102524.91;5095601;28;20784;-61
2021/10/11 05:08:01;;;;;;;18.58;6.18;;;;;;;10.41;100.00;102524.91;5097346;28;20024;-59
2021/10/11 05:10:26;;;;;;;25.23;6.53;;;;;;;10.41;100.00;102516.88;5097373;28;20040;-60
2021/10/11 05:12:51;;;;;;;25.00;5.83;;;;;;;10.44;100.00;102522.78;5097134;28;20061;-59
2021/10/11 05:15:17;;;;;;;17.17;5.97;;;;;;;10.43;100.00;102523.78;5096735;28;20032;-59
2021/10/11 05:17:43;;;;;;;21.52;6.88;;;;;;;10.44;100.00;102520.09;5096903;28;20032;-60
2021/10/11 05:20:10;;;;;;;19.95;6.15;;;;;;;10.42;100.00;102522.09;5096640;28;20031;-61
2021/10/11 05:22:36;;;;;;;18.40;6.15;;;;;;;10.35;100.00;102520.16;5101398;28;20047;-61
2021/10/11 05:25:03;;;;;;;29.87;7.90;;;;;;;10.31;100.00;102530.28;5103306;28;20031;-62
2021/10/11 05:27:28;;;;;;;;;;;;;;;10.27;100.00;102523.56;5097420;28;20058;-60
2021/10/11 05:29:54;;;;;;;27.07;7.13;;;;;;;10.27;100.00;102526.25;5096811;28;20329;-61
2021/10/11 05:32:19;;;;;;;25.60;7.68;;;;;;;10.24;100.00;102534.56;5124162;27;20492;-61
2021/10/11 05:34:46;;;;;;;27.80;8.80;;;;;;;10.18;100.00;102526.19;5125475;27;20043;-59
2021/10/11 05:37:11;;;;;;;27.75;8.30;;;;;;;10.17;100.00;102527.16;5131714;27;20255;-61
2021/10/11 05:39:39;;;;;;;31.57;7.43;;;;;;;10.18;100.00;102542.22;5137333;27;20034;-61
2021/10/11 05:42:06;;;;;;;27.35;6.43;;;;;;;10.14;100.00;102538.13;5130151;27;20035;-61
2021/10/11 05:44:32;;;;;;;14.90;5.00;;;;;;;10.12;100.00;102544.66;5137331;27;20054;-61
2021/10/11 05:46:58;;;;;;;23.33;4.90;;;;;;;10.07;100.00;102542.41;5127999;27;20039;-61
2021/10/11 05:49:24;;;;;;;15.25;4.80;;;;;;;10.06;100.00;102547.94;5125266;27;20039;-61
2021/10/11 05:51:49;;;;;;;23.70;5.93;;;;;;;10.05;100.00;102549.75;5115031;27;20027;-59
2021/10/11 05:54:15;;;;;;;17.83;4.38;;;;;;;10.01;100.00;102546.53;5097826;28;20484;-61
2021/10/11 05:56:41;;;;;;;19.42;4.60;;;;;;;10.00;100.00;102544.00;5117156;27;20114;-61
2021/10/11 05:59:07;;;;;;;29.15;5.07;;;;;;;10.01;100.00;102543.03;5099700;28;20126;-60
2021/10/11 06:01:32;;;;;;;18.40;5.57;;;;;;;9.99;100.00;102551.19;5120277;27;20359;-62
2021/10/11 06:03:58;;;;;;;21.35;5.45;;;;;;;10.04;100.00;102548.06;5106876;28;20039;-59
2021/10/11 06:06:23;;;;;;;20.93;5.33;;;;;;;10.09;100.00;102551.13;5112568;27;20512;-60
2021/10/11 06:08:49;;;;;;;19.30;5.43;;;;;;;10.12;100.00;102556.16;5105281;28;20059;-62
2021/10/11 06:11:16;;;;;;;24.50;6.33;;;;;;;10.32;100.00;102548.03;5109052;27;20740;-60
2021/10/11 06:13:41;;;;;;;23.35;5.57;;;;;;;10.24;100.00;102542.59;5123976;27;20027;-60
2021/10/11 06:16:07;;;;;;;25.58;5.97;;;;;;;10.27;100.00;102553.00;5134914;27;20503;-59
2021/10/11 06:18:33;;;;;;;19.37;6.07;;;;;;;11.27;100.00;102549.34;5136553;27;20039;-61
2021/10/11 06:20:58;;;;;;;20.98;6.47;;;;;;;11.56;100.00;102542.78;5130272;27;20425;-60
2021/10/11 06:23:24;;;;;;;19.20;6.47;;;;;;;11.67;100.00;102538.97;5114870;28;20487;-60
2021/10/11 06:25:49;;;;;;;33.00;6.53;;;;;;;11.70;100.00;102539.50;5117765;27;20022;-61
2021/10/11 06:28:18;;;;;;;21.33;5.97;;;;;;;11.80;100.00;102547.41;5115696;28;20059;-60
2021/10/11 06:30:45;;;;;;;20.60;5.30;;;;;;;11.89;100.00;102557.16;5115847;28;20082;-62
2021/10/11 06:33:12;;;;;;;22.95;4.93;;;;;;;11.94;100.00;102556.69;5115696;28;20476;-62
2021/10/11 06:35:37;;;;;;;;;;;;;;;12.01;100.00;102557.75;5119200;27;20070;-61
2021/10/11 06:38:03;;;;;;;20.17;4.50;;;;;;;11.99;100.00;102548.13;5117459;27;19922;-61
2021/10/11 06:40:28;;;;;;;25.48;5.40;;;;;;;12.01;100.00;102552.38;5117104;27;20549;-61
2021/10/11 06:42:54;;;;;;;23.07;5.73;;;;;;;11.93;100.00;102565.72;5126430;27;20398;-60
2021/10/11 06:45:19;;;;;;;20.07;5.37;;;;;;;12.03;100.00;102554.91;5123259;27;20028;-62
2021/10/11 06:47:46;;;;;;;23.43;6.50;;;;;;;11.91;100.00;102552.47;5123991;27;20274;-61
2021/10/11 06:50:12;;;;;;;21.87;6.77;;;;;;;12.06;100.00;102554.56;5125513;27;20041;-60
2021/10/11 06:52:37;;;;;;;27.30;5.17;;;;;;;12.09;100.00;102554.25;5124788;27;20255;-61
2021/10/11 06:55:03;;;;;;;21.80;5.80;;;;;;;12.06;100.00;102543.84;5124357;27;20073;-62
2021/10/11 06:57:29;;;;;;;12.45;3.95;;;;;;;12.11;100.00;102546.03;5116759;27;20034;-61
2021/10/11 06:59:54;;;;;;;20.90;5.63;;;;;;;12.15;100.00;102553.59;5115248;28;20140;-61
2021/10/11 07:02:20;;;;;;;17.50;5.60;;;;;;;12.23;100.00;102560.81;5120203;27;20457;-60
2021/10/11 07:04:46;;;;;;;23.88;6.00;;;;;;;12.35;100.00;102553.28;5094858;28;20040;-60
2021/10/11 07:07:12;;;;;;;16.63;6.60;;;;;;;12.25;100.00;102563.34;5125247;27;20489;-61
2021/10/11 07:09:37;;;;;;;16.73;4.20;;;;;;;11.50;100.00;102575.56;5135672;27;20345;-61
2021/10/11 07:12:03;;;;;;;17.15;4.50;;;;;;;11.35;100.00;102578.00;5129402;27;20076;-61
2021/10/11 07:14:29;;;;;;;14.20;3.58;;;;;;;11.33;100.00;102584.38;5135273;27;20066;-59
2021/10/11 07:16:54;;;;;;;20.20;3.73;;;;;;;11.26;100.00;102591.31;5129534;27;20031;-60
2021/10/11 07:19:20;;;;;;;12.60;3.55;;;;;;;11.29;100.00;102588.34;5135302;27;20035;-61
2021/10/11 07:21:45;;;;;;;9.43;3.27;;;;;;;11.41;100.00;102593.44;5124151;27;20063;-62
2021/10/11 07:24:12;;;;;;;18.88;2.75;;;;;;;11.31;100.00;102583.69;5116340;28;20035;-60
2021/10/11 07:26:40;;;;;;;13.73;2.93;;;;;;;11.41;100.00;102590.75;5120623;27;20028;-61
2021/10/11 07:29:06;;;;;;;12.63;3.47;;;;;;;11.45;100.00;102592.13;5119301;28;20291;-61
2021/10/11 07:31:31;;;;;;;16.67;3.35;;;;;;;11.48;100.00;102592.66;5120433;27;20256;-60
2021/10/11 07:33:57;;;;;;;10.63;2.88;;;;;;;11.56;100.00;102594.53;5114714;28;20045;-61
2021/10/11 07:36:22;;;;;;;13.20;3.10;;;;;;;11.57;100.00;102590.88;5119963;27;20083;-61
2021/10/11 07:38:48;;;;;;;12.27;3.40;;;;;;;11.60;100.00;102606.63;5116314;27;20116;-61
2021/10/11 07:41:13;;;;;;;14.10;3.63;;;;;;;11.65;100.00;102602.63;5124531;27;20032;-60
2021/10/11 07:43:39;;;;;;;15.67;4.27;;;;;;;11.61;100.00;102602.09;5135706;27;20039;-62
2021/10/11 07:46:05;;;;;;;15.00;3.20;;;;;;;11.69;100.00;102614.69;5135384;27;20027;-62
2021/10/11 07:48:31;;;;;;;;;;;;;;;11.68;100.00;102616.56;5135367;27;20118;-61
2021/10/11 07:50:57;;;;;;;12.73;2.97;;;;;;;11.80;100.00;102617.13;5135087;27;19948;-61
2021/10/11 07:53:23;;;;;;;14.48;4.22;;;;;;;11.92;100.00;102617.69;5134664;27;20815;-62
2021/10/11 07:55:49;;;;;;;12.75;2.95;;;;;;;11.90;100.00;102607.09;5104419;27;20028;-60
2021/10/11 07:58:14;;;;;;;12.77;3.37;;;;;;;11.88;100.00;102611.78;5113622;28;20058;-61
2021/10/11 08:00:40;;;;;;;24.48;3.58;;;;;;;11.97;100.00;102615.34;5114447;28;20782;-61
2021/10/11 08:03:05;;;;;;;20.70;5.03;;;;;;;12.15;100.00;102611.75;5113491;28;20027;-62
2021/10/11 08:05:31;;;;;;;18.00;3.92;;;;;;;12.34;100.00;102613.31;5112232;28;20134;-59
2021/10/11 08:07:57;;;;;;;15.95;4.07;;;;;;;12.38;100.00;102609.31;5114237;28;20040;-59
2021/10/11 08:10:22;;;;;;;13.53;3.63;;;;;;;12.59;100.00;102610.69;5113019;28;20035;-61
2021/10/11 08:12:48;;;;;;;11.93;3.33;;;;;;;12.66;100.00;102606.31;5113770;28;20069;-60
2021/10/11 08:15:13;;;;;;;11.73;3.17;;;;;;;12.72;100.00;102604.84;5112391;28;20063;-59
2021/10/11 08:17:39;;;;;;;13.65;2.88;;;;;;;12.79;100.00;102605.84;5114032;28;20114;-59
2021/10/11 08:20:06;;;;;;;15.18;3.30;;;;;;;12.95;100.00;102614.91;5113697;28;20562;-60
2021/10/11 08:22:32;;;;;;;13.03;3.20;;;;;;;12.93;100.00;102619.63;5113359;28;20031;-61
2021/10/11 08:24:57;;;;;;;19.52;3.70;;;;;;;13.05;100.00;102621.78;5113041;28;20609;-60
2021/10/11 08:27:23;;;;;;;13.97;3.57;;;;;;;13.11;100.00;102622.97;5113337;28;20365;-61
2021/10/11 08:29:52;;;;;;;20.13;3.55;;;;;;;13.15;100.00;102623.50;5113544;28;20034;-61
2021/10/11 08:32:22;;;;;;;17.87;3.47;;;;;;;13.25;100.00;102624.13;5113777;28;20027;-61
2021/10/11 08:34:48;;;;;;;13.93;2.83;;;;;;;13.28;100.00;102628.34;5112762;28;20295;-61
2021/10/11 08:37:14;;;;;;;14.60;3.72;;;;;;;13.40;100.00;102628.84;5113280;28;20291;-62
2021/10/11 08:39:41;;;;;;;12.90;3.00;;;;;;;13.40;100.00;102632.34;5112212;28;20040;-61
2021/10/11 08:42:07;;;;;;;12.50;3.10;;;;;;;13.38;100.00;102634.38;5111784;28;20036;-61
2021/10/11 08:44:33;;;;;;;14.82;2.88;;;;;;;13.31;100.00;102630.69;5112951;28;20294;-60
2021/10/11 08:47:02;;;;;;;12.55;2.95;;;;;;;13.39;100.00;102629.84;5113305;28;20058;-61
2021/10/11 08:49:28;;;;;;;22.03;3.27;;;;;;;13.41;100.00;102619.75;5113137;28;20036;-60
2021/10/11 08:51:54;;;;;;;;;;;;;;;13.37;100.00;102624.63;5112226;28;20239;-60
2021/10/11 08:54:20;;;;;;;18.77;3.13;;;;;;;13.50;100.00;102626.00;5111318;28;20014;-60
2021/10/11 08:56:45;;;;;;;14.37;2.77;;;;;;;13.46;100.00;102628.19;5112820;28;20096;-61
2021/10/11 08:59:12;;;;;;;13.23;3.10;;;;;;;13.52;100.00;102629.34;5113060;28;20272;-60
2021/10/11 09:01:38;;;;;;;20.27;3.77;;;;;;;13.46;100.00;102615.56;5112953;28;20541;-61
2021/10/11 09:04:18;;;;;;;11.38;3.10;;;;;;;13.48;100.00;102626.16;5111608;28;20339;-61
2021/10/11 09:07:01;;;;;;;13.77;3.33;;;;;;;13.61;100.00;102631.00;5111537;28;20039;-61
2021/10/11 09:09:27;;;;;;;14.07;3.00;;;;;;;13.52;100.00;102630.16;5107747;28;20280;-60
2021/10/11 09:11:52;;;;;;;10.88;2.80;;;;;;;13.68;100.00;102631.16;5112045;28;20827;-61
2021/10/11 09:14:22;;;;;;;15.30;3.67;;;;;;;13.65;100.00;102626.94;5115511;28;20063;-61
2021/10/11 09:17:01;;;;;;;15.37;3.27;;;;;;;13.73;100.00;102628.78;5122619;27;20109;-62
2021/10/11 09:19:39;;;;;;;14.37;3.43;;;;;;;13.91;100.00;102633.91;5120471;28;20334;-60
2021/10/11 09:22:05;;;;;;;10.73;2.97;;;;;;;14.06;100.00;102631.34;5116917;28;20267;-60
2021/10/11 09:24:30;;;;;;;17.75;3.28;;;;;;;14.14;100.00;102627.78;5122207;28;20317;-61
2021/10/11 09:26:59;;;;;;;9.90;3.03;;;;;;;14.05;100.00;102640.41;5121547;27;20392;-60
2021/10/11 09:29:34;;;;;;;15.13;3.00;;;;;;;14.23;100.00;102640.19;5122949;27;20448;-58
2021/10/11 09:32:05;;;;;;;18.23;3.23;;;;;;;14.19;100.00;102637.00;5123357;28;20271;-60
2021/10/11 09:34:32;;;;;;;17.50;2.80;;;;;;;14.14;100.00;102639.38;5112556;28;20778;-61
2021/10/11 09:37:03;;;;;;;20.57;3.07;;;;;;;14.35;100.00;102640.63;5112459;28;20629;-62
2021/10/11 09:39:31;;;;;;;16.87;3.27;;;;;;;14.55;100.00;102642.88;5121427;28;20252;-62
2021/10/11 09:41:58;;;;;;;13.90;2.47;;;;;;;14.65;100.00;102639.94;5117214;27;20266;-61
2021/10/11 09:44:24;;;;;;;21.27;2.33;;;;;;;14.82;100.00;102640.72;5112494;28;20880;-61
2021/10/11 09:46:57;;;;;;;12.18;2.10;;;;;;;14.98;100.00;102634.34;5115021;28;20295;-61
2021/10/11 09:49:26;;;;;;;14.40;3.13;;;;;;;15.11;100.00;102644.50;5113481;28;20101;-62
2021/10/11 09:51:53;;;;;;;13.90;2.70;;;;;;;15.57;100.00;102644.41;5115607;28;20244;-62
2021/10/11 09:54:18;;;;;;;16.03;3.07;;;;;;;15.66;100.00;102647.00;5122693;27;20298;-60
2021/10/11 09:56:45;;;;;;;12.45;2.75;;;;;;;15.37;100.00;102638.72;5124830;27;20248;-59
2021/10/11 09:59:11;;;;;;;11.20;2.57;;;;;;;15.31;100.00;102651.06;5126438;27;20037;-61
2021/10/11 10:01:41;;;;;;;13.68;3.22;;;;;;;15.14;100.00;102638.75;5128045;27;20468;-61
2021/10/11 10:04:08;;;;;;;16.23;2.97;;;;;;;15.12;100.00;102646.19;5109456;27;20043;-64
2021/10/11 10:06:35;;;;;;;12.83;2.20;;;;;;;15.21;100.00;102650.47;5100509;28;20288;-60
2021/10/11 10:09:02;;;;;;;;;;;;;;;15.15;100.00;102646.69;5103156;28;20084;-60
2021/10/11 10:11:29;;;;;;;15.27;2.75;;;;;;;15.33;100.00;102651.72;5116165;28;19953;-62
2021/10/11 10:13:55;;;;;;;10.97;2.60;;;;;;;15.90;100.00;102638.66;5121258;27;20027;-61
2021/10/11 10:16:21;;;;;;;12.38;3.00;;;;;;;15.74;100.00;102641.56;5129278;27;20376;-61
2021/10/11 10:18:46;;;;;;;17.98;3.53;;;;;;;16.15;100.00;102635.69;5130049;27;20027;-61
2021/10/11 10:21:15;;;;;;;10.70;2.47;;;;;;;16.37;100.00;102638.41;5136833;27;20440;-61
2021/10/11 10:23:54;;;;;;;12.63;2.47;;;;;;;16.58;100.00;102639.47;5129213;27;20046;-60
2021/10/11 10:26:27;;;;;;;12.50;3.10;;;;;;;17.02;100.00;102635.75;5117670;27;20023;-60
2021/10/11 10:28:54;;;;;;;10.67;2.20;;;;;;;17.55;100.00;102628.25;5120991;27;20480;-60
2021/10/11 10:31:26;;;;;;;21.07;2.87;;;;;;;18.53;100.00;102626.38;5124093;27;20028;-61
2021/10/11 10:33:52;;;;;;;12.20;2.30;;;;;;;18.12;100.00;102626.25;5120987;27;20050;-60
2021/10/11 10:36:19;;;;;;;10.82;2.55;;;;;;;18.05;100.00;102623.53;5122105;27;20039;-61
2021/10/11 10:39:00;;;;;;;11.63;2.47;;;;;;;18.30;100.00;102620.28;5121333;27;20081;-61
2021/10/11 10:41:26;;;;;;;12.00;2.10;;;;;;;18.35;100.00;102627.81;5123115;27;20036;-61
2021/10/11 10:43:52;;;;;;;13.67;3.53;;;;;;;19.01;100.00;102620.84;5127335;27;20439;-61
2021/10/11 10:46:17;;;;;;;11.27;3.58;;;;;;;20.07;100.00;102622.72;5124535;27;20123;-60
2021/10/11 10:48:53;;;;;;;8.13;2.90;;;;;;;21.96;100.00;102624.69;5124240;27;20027;-61
2021/10/11 10:51:20;;;;;;;23.33;4.10;;;;;;;23.10;100.00;102618.63;5126486;27;20035;-63
2021/10/11 10:53:54;;;;;;;7.37;2.00;;;;;;;23.40;100.00;102614.94;5135451;27;20035;-61
2021/10/11 10:56:21;;;;;;;14.67;2.93;;;;;;;23.62;100.00;102624.19;5136005;27;20042;-61
2021/10/11 10:58:49;;;;;;;11.87;1.83;;;;;;;24.51;100.00;102629.44;5130754;27;20020;-61
2021/10/11 11:01:24;;;;;;;9.50;2.13;;;;;;;23.73;100.00;102629.84;5122807;27;20058;-61
2021/10/11 11:03:50;;;;;;;17.23;2.90;;;;;;;21.99;100.00;102634.31;5115031;28;20131;-61
2021/10/11 11:06:25;;;;;;;;;;;;;;;21.23;100.00;102631.75;5114733;28;20423;-61
2021/10/11 11:09:00;;;;;;;8.10;2.17;;;;;;;20.52;100.00;102618.25;5099151;27;19912;-61